Hoegh Berlin — C6XQ4 — position and weather

sailwx.info

Track history (hours):
 
Tides and Currents Weather Stations Pressure Air Temp Water Temp Dewpoint Dewpoint Depression Visibility Wind Speed Wind Dir Waves Ship Positions

Hoegh Berlin

Last reported at 2014-Dec-15 08:07 UTC. Time now 2014-Dec-21 15:53 UTC.
Position N 34°03' E 032°40'.

Length 228 m; draft 9.1 m.

Type: Cargo ship. MMSI: 311019100.

Date/timePositionNaut miles runAvg speedWind from/ knotsBaromVisibWave heightAir tempDewpointWater temp
2014-Dec-15 08:07N 34°03' E 032°40'32715.1
2014-Dec-14 10:26N 34°27' E 026°05'3315.1
2014-Dec-14 08:16N 34°30' E 025°26'  
2014-Dec-10 01:33N 35°59' W 005°11'1615.7
2014-Dec-10 00:33N 35°56' W 005°30'  
2014-Dec-06 18:18N 39°37' W 027°23'1013.9
2014-Dec-06 17:33N 39°39' W 027°36'1413.7
2014-Dec-06 16:32N 39°41' W 027°54'1413.7
2014-Dec-06 15:33N 39°43' W 028°12'1414.0
2014-Dec-06 14:33N 39°45' W 028°30'1413.8
2014-Dec-06 13:33N 39°47' W 028°47'1414.0
2014-Dec-06 12:33N 39°49' W 029°05'1414.2
2014-Dec-06 11:33N 39°51' W 029°24'1514.6
2014-Dec-06 10:33N 39°54' W 029°42'2115.0
2014-Dec-06 09:09N 39°56' W 030°10'2414.4
2014-Dec-06 07:28N 39°59' W 030°41'1414.5
2014-Dec-06 06:28N 40°00' W 030°60'1414.7
2014-Dec-06 05:33N 39°59' W 031°17'1514.9
2014-Dec-06 04:33N 39°59' W 031°37'1515.2
2014-Dec-06 03:33N 39°58' W 031°57'1515.2
2014-Dec-06 02:32N 39°57' W 032°17'  
Track history (hours):
 
Tides and Currents Weather Stations Pressure Air Temp Water Temp Dewpoint Dewpoint Depression Visibility Wind Speed Wind Dir Waves Ship Positions

Hoegh Berlin

Last reported at 2014-Dec-15 08:07 UTC. Time now 2014-Dec-21 15:53 UTC.
Position N 34°03' E 032°40'.

Length 228 m; draft 9.1 m.

Type: Cargo ship. MMSI: 311019100.

Date/timePositionNaut miles runAvg speedWind from/ knotsBaromVisibWave heightAir tempDewpointWater temp
2014-Dec-15 08:07N 34°03' E 032°40'32715.1
2014-Dec-14 10:26N 34°27' E 026°05'3315.1
2014-Dec-14 08:16N 34°30' E 025°26'  
2014-Dec-10 01:33N 35°59' W 005°11'1615.7
2014-Dec-10 00:33N 35°56' W 005°30'  
2014-Dec-06 18:18N 39°37' W 027°23'1013.9
2014-Dec-06 17:33N 39°39' W 027°36'1413.7
2014-Dec-06 16:32N 39°41' W 027°54'1413.7
2014-Dec-06 15:33N 39°43' W 028°12'1414.0
2014-Dec-06 14:33N 39°45' W 028°30'1413.8
2014-Dec-06 13:33N 39°47' W 028°47'1414.0
2014-Dec-06 12:33N 39°49' W 029°05'1414.2
2014-Dec-06 11:33N 39°51' W 029°24'1514.6
2014-Dec-06 10:33N 39°54' W 029°42'2115.0
2014-Dec-06 09:09N 39°56' W 030°10'2414.4
2014-Dec-06 07:28N 39°59' W 030°41'1414.5
2014-Dec-06 06:28N 40°00' W 030°60'1414.7
2014-Dec-06 05:33N 39°59' W 031°17'1514.9
2014-Dec-06 04:33N 39°59' W 031°37'1515.2
2014-Dec-06 03:33N 39°58' W 031°57'1515.2
2014-Dec-06 02:32N 39°57' W 032°17'  

Dump ship's entire track history